createdAt,value
2022-09-18T00:00:09.562Z,8.53
2022-09-18T00:02:38.433Z,8.59
2022-09-18T00:05:06.530Z,8.63
2022-09-18T00:08:21.159Z,8.54
2022-09-18T00:10:48.650Z,8.49
2022-09-18T00:13:16.275Z,8.42
2022-09-18T00:15:43.841Z,8.42
2022-09-18T00:18:11.364Z,8.44
2022-09-18T00:20:39.118Z,8.42
2022-09-18T00:23:06.611Z,8.47
2022-09-18T00:25:35.441Z,8.45
2022-09-18T00:28:03.308Z,8.50
2022-09-18T00:30:30.829Z,8.46
2022-09-18T00:32:58.312Z,8.35
2022-09-18T00:35:25.880Z,8.34
2022-09-18T00:37:53.390Z,8.37
2022-09-18T00:40:20.991Z,8.39
2022-09-18T00:42:49.898Z,8.36
2022-09-18T00:45:17.476Z,8.30
2022-09-18T00:47:47.531Z,8.31
2022-09-18T00:50:18.028Z,8.32
2022-09-18T00:52:51.371Z,8.37
2022-09-18T00:55:23.951Z,8.40
2022-09-18T00:57:55.170Z,8.41
2022-09-18T01:00:22.934Z,8.40
2022-09-18T01:02:50.868Z,8.40
2022-09-18T01:05:23.027Z,8.41
2022-09-18T01:08:07.566Z,8.41
2022-09-18T01:10:45.459Z,8.44
2022-09-18T01:13:18.679Z,8.53
2022-09-18T01:15:49.831Z,8.58
2022-09-18T01:18:22.307Z,8.70
2022-09-18T01:21:02.719Z,8.75
2022-09-18T01:23:44.719Z,8.81
2022-09-18T01:26:25.198Z,8.82
2022-09-18T01:28:58.507Z,8.86
2022-09-18T01:31:30.100Z,8.90
2022-09-18T01:34:00.795Z,8.94
2022-09-18T01:36:29.395Z,8.97
2022-09-18T01:38:59.867Z,9.00
2022-09-18T01:41:29.083Z,9.07
2022-09-18T01:44:01.338Z,9.06
2022-09-18T01:46:29.183Z,9.11
2022-09-18T01:48:58.668Z,9.11
2022-09-18T01:51:30.775Z,9.14
2022-09-18T01:54:01.187Z,9.18
2022-09-18T01:56:32.271Z,9.19
2022-09-18T01:59:05.135Z,9.25
2022-09-18T02:01:34.726Z,9.27
2022-09-18T02:04:05.089Z,9.29
2022-09-18T02:06:35.303Z,9.32
2022-09-18T02:09:58.264Z,9.33
2022-09-18T02:12:27.468Z,9.31
2022-09-18T02:14:58.107Z,9.34
2022-09-18T02:17:29.132Z,9.37
2022-09-18T02:20:00.339Z,9.35
2022-09-18T02:22:30.432Z,9.40
2022-09-18T02:25:01.641Z,9.38
2022-09-18T02:27:30.102Z,9.37
2022-09-18T02:29:57.857Z,9.38
2022-09-18T02:32:25.372Z,9.35
2022-09-18T02:34:53.159Z,9.35
2022-09-18T02:37:28.667Z,9.35
2022-09-18T02:40:08.287Z,9.36
2022-09-18T02:42:43.452Z,9.35
2022-09-18T02:45:15.975Z,9.35
2022-09-18T02:47:54.850Z,9.34
2022-09-18T02:50:27.578Z,9.32
2022-09-18T02:53:05.311Z,9.36
2022-09-18T02:55:41.999Z,9.41
2022-09-18T02:58:15.843Z,9.36
2022-09-18T03:00:45.355Z,9.37
2022-09-18T03:03:14.865Z,9.35
2022-09-18T03:05:42.383Z,9.37
2022-09-18T03:08:09.893Z,9.43
2022-09-18T03:10:38.947Z,9.41
2022-09-18T03:13:06.921Z,9.39
2022-09-18T03:15:34.459Z,9.37
2022-09-18T03:18:02.410Z,9.34
2022-09-18T03:20:29.928Z,9.32
2022-09-18T03:22:57.429Z,9.34
2022-09-18T03:25:24.976Z,9.34
2022-09-18T03:27:56.319Z,9.38
2022-09-18T03:30:24.115Z,9.39
2022-09-18T03:32:51.785Z,9.39
2022-09-18T03:35:19.300Z,9.37
2022-09-18T03:37:46.796Z,9.37
2022-09-18T03:40:15.848Z,9.39
2022-09-18T03:42:44.191Z,9.35
2022-09-18T03:45:13.664Z,9.37
2022-09-18T03:47:41.176Z,9.41
2022-09-18T03:50:09.126Z,9.43
2022-09-18T03:52:36.677Z,9.45
2022-09-18T03:55:04.776Z,9.42
2022-09-18T03:57:32.278Z,9.47
2022-09-18T03:59:59.839Z,9.46
2022-09-18T04:02:28.714Z,9.47
2022-09-18T04:04:56.856Z,9.48
2022-09-18T04:07:24.811Z,9.48
2022-09-18T04:10:56.269Z,9.48
2022-09-18T04:13:23.782Z,9.65
2022-09-18T04:15:51.329Z,9.57
2022-09-18T04:18:18.942Z,9.54
2022-09-18T04:20:46.996Z,9.58
2022-09-18T04:23:14.537Z,9.57
2022-09-18T04:25:43.827Z,9.52
2022-09-18T04:28:12.680Z,9.53
2022-09-18T04:30:40.172Z,9.52
2022-09-18T04:33:08.398Z,9.50
2022-09-18T04:35:36.328Z,9.48
2022-09-18T04:38:03.884Z,9.45
2022-09-18T04:40:31.605Z,9.45
2022-09-18T04:42:59.201Z,9.46
2022-09-18T04:45:28.104Z,9.46
2022-09-18T04:47:55.592Z,9.45
2022-09-18T04:50:23.144Z,9.45
2022-09-18T04:52:50.643Z,9.42
2022-09-18T04:55:18.284Z,9.39
2022-09-18T04:57:45.770Z,9.38
2022-09-18T05:00:14.123Z,9.37
2022-09-18T05:02:42.955Z,9.35
2022-09-18T05:05:10.548Z,9.34
2022-09-18T05:07:38.035Z,9.34
2022-09-18T05:10:08.592Z,9.35
2022-09-18T05:12:36.067Z,9.36
2022-09-18T05:15:03.632Z,9.40
2022-09-18T05:17:32.684Z,9.41
2022-09-18T05:20:01.545Z,9.42
2022-09-18T05:22:29.596Z,9.41
2022-09-18T05:24:57.247Z,9.43
2022-09-18T05:27:27.000Z,9.43
2022-09-18T05:29:54.683Z,9.43
2022-09-18T05:32:22.361Z,9.43
2022-09-18T05:34:50.283Z,9.40
2022-09-18T05:37:19.689Z,9.40
2022-09-18T05:39:47.199Z,9.39
2022-09-18T05:42:14.953Z,9.35
2022-09-18T05:44:42.442Z,9.36
2022-09-18T05:47:09.939Z,9.38
2022-09-18T05:49:37.432Z,9.39
2022-09-18T05:52:05.243Z,9.40
2022-09-18T05:54:36.118Z,9.41
2022-09-18T05:57:03.606Z,9.41
2022-09-18T05:59:31.148Z,9.42
2022-09-18T06:01:58.697Z,9.46
2022-09-18T06:04:26.235Z,9.48
2022-09-18T06:06:54.084Z,9.53
2022-09-18T06:09:21.985Z,9.52
2022-09-18T06:11:50.835Z,9.54
2022-09-18T06:14:18.346Z,9.54
2022-09-18T06:16:45.962Z,9.61
2022-09-18T06:19:13.494Z,9.60
2022-09-18T06:21:41.603Z,9.66
2022-09-18T06:24:09.528Z,9.67
2022-09-18T06:26:37.141Z,9.72
2022-09-18T06:29:06.024Z,9.71
2022-09-18T06:31:33.544Z,9.73
2022-09-18T06:34:01.090Z,9.72
2022-09-18T06:36:28.588Z,9.75
2022-09-18T06:38:56.091Z,9.77
2022-09-18T06:41:24.506Z,9.93
2022-09-18T06:43:52.052Z,10.06
2022-09-18T06:46:20.935Z,9.96
2022-09-18T06:48:49.440Z,9.88
2022-09-18T06:51:17.023Z,9.74
2022-09-18T06:53:44.891Z,9.76
2022-09-18T06:56:12.396Z,9.81
2022-09-18T06:58:39.898Z,9.88
2022-09-18T07:01:07.467Z,9.83
2022-09-18T07:03:36.420Z,9.80
2022-09-18T07:06:04.052Z,9.77
2022-09-18T07:08:31.634Z,9.81
2022-09-18T07:11:01.736Z,9.83
2022-09-18T07:13:31.343Z,9.92
2022-09-18T07:15:59.357Z,9.83
2022-09-18T07:18:27.327Z,9.89
2022-09-18T07:20:56.188Z,9.88
2022-09-18T07:23:24.226Z,9.85
2022-09-18T07:25:51.727Z,9.82
2022-09-18T07:28:19.241Z,9.85
2022-09-18T07:30:46.823Z,9.85
2022-09-18T07:33:14.450Z,9.85
2022-09-18T07:35:41.964Z,9.90
2022-09-18T07:38:11.699Z,9.89
2022-09-18T07:40:40.170Z,9.98
2022-09-18T07:43:09.434Z,10.01
2022-09-18T07:45:37.374Z,10.07
2022-09-18T07:48:05.949Z,10.08
2022-09-18T07:50:33.539Z,10.00
2022-09-18T07:53:02.471Z,10.02
2022-09-18T07:55:31.640Z,10.06
2022-09-18T07:58:00.481Z,10.07
2022-09-18T08:00:29.803Z,10.07
2022-09-18T08:03:02.981Z,10.06
2022-09-18T08:05:30.588Z,10.05
2022-09-18T08:08:03.061Z,10.06
2022-09-18T08:10:32.499Z,10.13
2022-09-18T08:13:00.114Z,10.15
2022-09-18T08:15:27.674Z,10.18
2022-09-18T08:17:55.172Z,10.24
2022-09-18T08:20:22.721Z,10.17
2022-09-18T08:22:50.791Z,10.26
2022-09-18T08:25:19.064Z,10.21
2022-09-18T08:27:48.527Z,10.22
2022-09-18T08:30:17.402Z,10.25
2022-09-18T08:32:44.935Z,10.23
2022-09-18T08:35:12.426Z,10.25
2022-09-18T08:37:39.960Z,10.16
2022-09-18T08:40:09.002Z,10.17
2022-09-18T08:42:43.405Z,10.15
2022-09-18T08:45:30.094Z,10.18
2022-09-18T08:47:59.755Z,10.15
2022-09-18T08:50:29.149Z,10.18
2022-09-18T08:52:59.216Z,10.30
2022-09-18T08:55:29.994Z,10.48
2022-09-18T08:58:00.796Z,10.55
2022-09-18T09:00:32.249Z,10.65
2022-09-18T09:03:09.645Z,10.64
2022-09-18T09:05:45.282Z,10.71
2022-09-18T09:08:27.469Z,10.63
2022-09-18T09:11:00.213Z,10.62
2022-09-18T09:14:00.308Z,10.77
2022-09-18T09:16:36.722Z,10.69
2022-09-18T09:19:12.551Z,10.76
2022-09-18T09:21:49.966Z,10.63
2022-09-18T09:24:28.363Z,10.77
2022-09-18T09:26:57.369Z,10.67
2022-09-18T09:29:28.688Z,10.64
2022-09-18T09:31:59.902Z,10.70
2022-09-18T09:34:30.427Z,10.57
2022-09-18T09:37:00.404Z,10.44
2022-09-18T09:39:30.731Z,10.41
2022-09-18T09:42:00.241Z,10.31
2022-09-18T09:44:33.611Z,10.37
2022-09-18T09:47:08.247Z,10.32
2022-09-18T09:49:40.086Z,10.29
2022-09-18T09:52:11.381Z,10.34
2022-09-18T09:54:39.569Z,10.33
2022-09-18T09:57:17.210Z,10.36
2022-09-18T09:59:49.766Z,10.23
2022-09-18T10:02:29.549Z,10.04
2022-09-18T10:05:03.259Z,10.16
2022-09-18T10:07:35.454Z,10.01
2022-09-18T10:10:08.399Z,9.87
2022-09-18T10:12:44.453Z,9.80
2022-09-18T10:15:17.790Z,9.81
2022-09-18T10:17:49.424Z,9.87
2022-09-18T10:20:18.000Z,10.01
2022-09-18T10:22:47.352Z,9.89
2022-09-18T10:25:18.479Z,9.86
2022-09-18T10:27:46.001Z,10.02
2022-09-18T10:30:14.892Z,10.27
2022-09-18T10:32:42.724Z,10.38
2022-09-18T10:35:43.912Z,10.14
2022-09-18T10:38:32.526Z,10.00
2022-09-18T10:41:19.041Z,9.96
2022-09-18T10:43:58.626Z,10.06
2022-09-18T10:46:28.852Z,10.10
2022-09-18T10:48:56.795Z,10.14
2022-09-18T10:51:28.729Z,10.51
2022-09-18T10:54:04.963Z,10.49
2022-09-18T10:56:33.276Z,10.62
2022-09-18T10:59:15.712Z,10.45
2022-09-18T11:01:45.000Z,10.45
2022-09-18T11:04:17.197Z,10.38
2022-09-18T11:06:47.439Z,10.62
2022-09-18T11:09:18.815Z,10.42
2022-09-18T11:11:50.157Z,10.37
2022-09-18T11:14:19.668Z,10.52
2022-09-18T11:16:50.804Z,10.67
2022-09-18T11:19:25.031Z,10.61
2022-09-18T11:21:55.225Z,10.66
2022-09-18T11:24:25.175Z,10.89
2022-09-18T11:26:54.032Z,10.76
2022-09-18T11:29:26.495Z,10.86
2022-09-18T11:31:56.984Z,10.72
2022-09-18T11:34:27.779Z,10.68
2022-09-18T11:36:59.330Z,10.63
2022-09-18T11:39:30.106Z,10.87
2022-09-18T11:41:57.676Z,10.79
2022-09-18T11:44:27.619Z,10.80
2022-09-18T11:47:25.420Z,10.73
2022-09-18T11:49:56.650Z,10.80
2022-09-18T11:52:28.870Z,10.93
2022-09-18T11:54:59.274Z,10.90
2022-09-18T11:57:29.150Z,10.93
2022-09-18T11:59:59.520Z,10.97
2022-09-18T12:02:31.947Z,11.03
2022-09-18T12:05:04.251Z,11.02
2022-09-18T12:07:40.618Z,11.10
2022-09-18T12:10:14.926Z,11.01
2022-09-18T12:12:45.454Z,11.21
2022-09-18T12:15:16.632Z,10.96
2022-09-18T12:17:48.432Z,11.07
2022-09-18T12:20:23.413Z,10.98
2022-09-18T12:22:54.738Z,11.21
2022-09-18T12:25:28.835Z,11.00
2022-09-18T12:28:00.797Z,11.18
2022-09-18T12:30:33.074Z,11.26
2022-09-18T12:33:20.670Z,11.39
2022-09-18T12:36:25.518Z,11.47
2022-09-18T12:39:04.190Z,11.35
2022-09-18T12:41:43.090Z,11.42
2022-09-18T12:44:24.397Z,11.43
2022-09-18T12:47:00.931Z,11.70
2022-09-18T12:49:45.794Z,11.75
2022-09-18T12:52:25.832Z,11.79
2022-09-18T12:55:11.270Z,11.58
2022-09-18T12:57:47.916Z,11.48
2022-09-18T13:00:16.501Z,11.72
2022-09-18T13:02:51.681Z,11.84
2022-09-18T13:05:23.592Z,11.92
2022-09-18T13:07:53.099Z,11.93
2022-09-18T13:10:25.475Z,11.97
2022-09-18T13:12:57.625Z,11.92
2022-09-18T13:15:28.168Z,11.83
2022-09-18T13:18:09.635Z,11.89
2022-09-18T13:20:41.607Z,11.75
2022-09-18T13:23:14.379Z,11.83
2022-09-18T13:25:43.555Z,11.80
2022-09-18T13:28:13.699Z,11.97
2022-09-18T13:30:41.471Z,11.88
2022-09-18T13:33:23.052Z,11.83
2022-09-18T13:35:54.938Z,11.85
2022-09-18T13:38:23.852Z,11.74
2022-09-18T13:41:00.546Z,11.72
2022-09-18T13:43:45.005Z,11.54
2022-09-18T13:46:31.293Z,11.41
2022-09-18T13:49:00.087Z,11.35
2022-09-18T13:51:31.397Z,11.57
2022-09-18T13:54:24.254Z,11.19
2022-09-18T13:57:17.599Z,11.20
2022-09-18T13:59:47.535Z,11.08
2022-09-18T14:02:35.201Z,11.11
2022-09-18T14:05:32.947Z,11.16
2022-09-18T14:08:04.324Z,11.48
2022-09-18T14:10:38.350Z,11.39
2022-09-18T14:13:31.655Z,11.38
2022-09-18T14:16:06.010Z,11.52
2022-09-18T14:18:36.862Z,11.55
2022-09-18T14:21:25.191Z,11.37
2022-09-18T14:24:25.183Z,11.39
2022-09-18T14:27:01.942Z,11.36
2022-09-18T14:29:33.291Z,11.31
2022-09-18T14:32:02.595Z,11.35
2022-09-18T14:34:36.663Z,11.34
2022-09-18T14:37:21.603Z,11.30
2022-09-18T14:39:49.147Z,11.33
2022-09-18T14:42:27.817Z,11.25
2022-09-18T14:45:15.909Z,11.24
2022-09-18T14:47:44.890Z,11.35
2022-09-18T14:50:28.486Z,11.26
2022-09-18T14:52:56.718Z,11.28
2022-09-18T14:55:28.439Z,11.23
2022-09-18T14:57:58.239Z,11.07
2022-09-18T15:00:30.060Z,11.22
2022-09-18T15:02:59.673Z,11.07
2022-09-18T15:05:28.339Z,11.02
2022-09-18T15:07:59.412Z,10.95
2022-09-18T15:10:28.129Z,10.88
2022-09-18T15:12:57.805Z,10.76
2022-09-18T15:15:30.421Z,10.72
2022-09-18T15:17:58.271Z,10.65
2022-09-18T15:20:27.463Z,10.60
2022-09-18T15:22:55.362Z,10.63
2022-09-18T15:25:26.135Z,10.67
2022-09-18T15:27:54.893Z,10.60
2022-09-18T15:30:23.790Z,10.52
2022-09-18T15:32:55.122Z,10.54
2022-09-18T15:35:25.078Z,10.55
2022-09-18T15:37:55.047Z,10.48
2022-09-18T15:40:30.144Z,10.38
2022-09-18T15:42:59.662Z,10.39
2022-09-18T15:45:29.282Z,10.40
2022-09-18T15:48:00.504Z,10.33
2022-09-18T15:50:38.934Z,10.30
2022-09-18T15:53:17.582Z,10.30
2022-09-18T15:56:01.111Z,10.33
2022-09-18T15:58:40.667Z,10.21
2022-09-18T16:01:16.195Z,10.30
2022-09-18T16:03:45.171Z,10.12
2022-09-18T16:06:22.554Z,10.16
2022-09-18T16:08:52.379Z,10.14
2022-09-18T16:11:42.653Z,10.15
2022-09-18T16:14:44.899Z,10.10
2022-09-18T16:17:52.138Z,9.96
2022-09-18T16:20:30.824Z,9.91
2022-09-18T16:23:05.733Z,9.88
2022-09-18T16:25:37.286Z,9.99
2022-09-18T16:28:18.673Z,10.10
2022-09-18T16:30:48.431Z,10.34
2022-09-18T16:33:19.742Z,10.47
2022-09-18T16:35:55.711Z,10.26
2022-09-18T16:38:23.394Z,10.12
2022-09-18T16:40:51.339Z,9.96
2022-09-18T16:43:18.882Z,9.83
2022-09-18T16:45:47.805Z,9.78
2022-09-18T16:48:15.834Z,9.81
2022-09-18T16:50:43.612Z,9.87
2022-09-18T16:53:12.976Z,9.94
2022-09-18T16:55:43.378Z,9.90
2022-09-18T16:58:11.211Z,9.67
2022-09-18T17:00:38.811Z,9.54
2022-09-18T17:03:07.155Z,9.47
2022-09-18T17:05:35.266Z,9.43
2022-09-18T17:08:03.903Z,9.38
2022-09-18T17:10:32.794Z,9.34
2022-09-18T17:13:00.336Z,9.37
2022-09-18T17:15:27.855Z,9.31
2022-09-18T17:17:55.411Z,9.23
2022-09-18T17:20:23.054Z,9.25
2022-09-18T17:22:51.357Z,9.22
2022-09-18T17:25:19.391Z,9.23
2022-09-18T17:27:50.836Z,9.28
2022-09-18T17:30:18.630Z,9.32
2022-09-18T17:32:48.084Z,9.30
2022-09-18T17:35:15.896Z,9.23
2022-09-18T17:37:43.675Z,9.25
2022-09-18T17:40:11.603Z,9.23
2022-09-18T17:42:39.194Z,9.24
2022-09-18T17:45:09.314Z,9.25
2022-09-18T17:47:36.927Z,9.25
2022-09-18T17:50:05.457Z,9.26
2022-09-18T17:52:34.631Z,9.36
2022-09-18T17:55:02.343Z,9.38
2022-09-18T17:57:30.998Z,9.42
2022-09-18T17:59:58.594Z,9.47
2022-09-18T18:02:27.596Z,9.49
2022-09-18T18:04:55.255Z,9.52
2022-09-18T18:07:23.530Z,9.53
2022-09-18T18:09:51.023Z,9.55
2022-09-18T18:12:18.536Z,9.56
2022-09-18T18:14:46.409Z,9.54
2022-09-18T18:17:14.470Z,9.62
2022-09-18T18:19:43.311Z,9.65
2022-09-18T18:22:10.820Z,9.88
2022-09-18T18:24:38.392Z,10.08
2022-09-18T18:27:06.151Z,9.97
2022-09-18T18:29:33.662Z,9.58
2022-09-18T18:32:01.431Z,9.11
2022-09-18T18:34:30.023Z,8.98
2022-09-18T18:36:58.867Z,8.94
2022-09-18T18:39:26.366Z,8.88
2022-09-18T18:41:53.858Z,8.94
2022-09-18T18:44:22.231Z,8.82
2022-09-18T18:46:51.070Z,8.76
2022-09-18T18:49:18.907Z,8.80
2022-09-18T18:51:48.475Z,8.85
2022-09-18T18:54:18.734Z,9.02
2022-09-18T18:56:46.942Z,8.92
2022-09-18T18:59:16.174Z,8.83
2022-09-18T19:01:44.282Z,8.75
2022-09-18T19:04:14.474Z,8.70
2022-09-18T19:06:44.379Z,8.73
2022-09-18T19:09:16.039Z,8.73
2022-09-18T19:11:49.247Z,8.70
2022-09-18T19:14:18.503Z,8.64
2022-09-18T19:16:46.852Z,8.63
2022-09-18T19:19:15.894Z,8.53
2022-09-18T19:21:43.443Z,8.55
2022-09-18T19:24:12.068Z,8.53
2022-09-18T19:26:41.310Z,8.79
2022-09-18T19:29:17.686Z,8.59
2022-09-18T19:31:46.715Z,8.78
2022-09-18T19:34:15.984Z,8.72
2022-09-18T19:36:48.935Z,8.61
2022-09-18T19:39:17.312Z,8.62
2022-09-18T19:41:47.749Z,8.59
2022-09-18T19:44:20.298Z,8.53
2022-09-18T19:46:48.141Z,8.51
2022-09-18T19:49:18.198Z,8.48
2022-09-18T19:51:45.811Z,8.51
2022-09-18T19:54:13.869Z,8.49
2022-09-18T19:56:46.400Z,8.49
2022-09-18T19:59:14.286Z,8.55
2022-09-18T20:01:43.635Z,8.56
2022-09-18T20:04:11.318Z,8.77
2022-09-18T20:06:40.305Z,8.82
2022-09-18T20:09:07.943Z,8.63
2022-09-18T20:11:35.543Z,8.87
2022-09-18T20:14:03.230Z,8.92
2022-09-18T20:16:30.886Z,8.61
2022-09-18T20:18:59.822Z,8.57
2022-09-18T20:21:27.407Z,8.52
2022-09-18T20:23:57.573Z,8.56
2022-09-18T20:26:26.011Z,8.56
2022-09-18T20:28:53.525Z,8.49
2022-09-18T20:31:23.313Z,8.44
2022-09-18T20:33:54.872Z,8.46
2022-09-18T20:36:25.562Z,8.53
2022-09-18T20:38:57.770Z,8.57
2022-09-18T20:41:28.091Z,8.58
2022-09-18T20:43:55.661Z,8.60
2022-09-18T20:46:23.932Z,8.60
2022-09-18T20:48:55.024Z,8.63
2022-09-18T20:51:25.724Z,8.63
2022-09-18T20:53:56.087Z,8.64
2022-09-18T20:56:24.536Z,8.76
2022-09-18T20:58:52.239Z,8.69
2022-09-18T21:01:22.939Z,8.69
2022-09-18T21:03:56.515Z,8.72
2022-09-18T21:06:27.227Z,8.73
2022-09-18T21:08:55.651Z,8.78
2022-09-18T21:11:24.540Z,8.79
2022-09-18T21:13:53.545Z,8.76
2022-09-18T21:16:21.981Z,8.74
2022-09-18T21:18:53.424Z,8.67
2022-09-18T21:21:21.158Z,8.69
2022-09-18T21:23:58.373Z,8.73
2022-09-18T21:26:27.480Z,8.78
2022-09-18T21:28:57.154Z,8.69
2022-09-18T21:31:24.917Z,8.63
2022-09-18T21:33:53.198Z,8.73
2022-09-18T21:36:21.644Z,8.78
2022-09-18T21:38:51.386Z,8.76
2022-09-18T21:41:19.845Z,8.75
2022-09-18T21:43:50.926Z,8.71
2022-09-18T21:46:20.452Z,8.83
2022-09-18T21:48:52.738Z,8.76
2022-09-18T21:51:20.791Z,8.82
2022-09-18T21:53:49.655Z,8.64
2022-09-18T21:56:18.425Z,8.60
2022-09-18T21:58:47.617Z,8.65
2022-09-18T22:01:19.084Z,8.66
2022-09-18T22:03:50.499Z,8.69
2022-09-18T22:06:19.215Z,8.67
2022-09-18T22:08:50.790Z,8.67
2022-09-18T22:11:20.603Z,8.74
2022-09-18T22:13:49.308Z,8.79
2022-09-18T22:16:17.023Z,8.89
2022-09-18T22:18:47.551Z,8.95
2022-09-18T22:21:20.172Z,8.97
2022-09-18T22:23:53.123Z,9.10
2022-09-18T22:26:22.576Z,9.16
2022-09-18T22:28:50.836Z,9.13
2022-09-18T22:31:18.886Z,9.02
2022-09-18T22:33:47.221Z,8.99
2022-09-18T22:36:15.570Z,8.99
2022-09-18T22:38:43.396Z,8.98
2022-09-18T22:41:10.910Z,9.02
2022-09-18T22:43:39.751Z,9.03
2022-09-18T22:46:09.163Z,9.07
2022-09-18T22:48:37.191Z,9.18
2022-09-18T22:51:06.790Z,9.08
2022-09-18T22:53:34.454Z,9.07
2022-09-18T22:56:03.944Z,9.08
2022-09-18T22:58:31.710Z,9.18
2022-09-18T23:01:07.810Z,9.17
2022-09-18T23:03:36.726Z,9.06
2022-09-18T23:06:06.286Z,9.16
2022-09-18T23:08:34.852Z,9.09
2022-09-18T23:11:03.586Z,9.13
2022-09-18T23:13:32.338Z,9.11
2022-09-18T23:16:05.245Z,9.26
2022-09-18T23:18:34.372Z,9.20
2022-09-18T23:21:03.379Z,9.24
2022-09-18T23:23:32.682Z,9.27
2022-09-18T23:26:08.380Z,9.25
2022-09-18T23:28:37.459Z,9.14
2022-09-18T23:31:06.317Z,9.16
2022-09-18T23:33:35.666Z,9.20
2022-09-18T23:36:11.138Z,9.09
2022-09-18T23:38:39.119Z,9.09
2022-09-18T23:41:09.574Z,9.11
2022-09-18T23:43:37.261Z,9.10
2022-09-18T23:46:05.457Z,9.10
2022-09-18T23:48:34.754Z,9.11
2022-09-18T23:51:03.111Z,9.10
2022-09-18T23:53:35.218Z,9.10
2022-09-18T23:56:07.185Z,9.17
2022-09-18T23:58:35.174Z,9.34
